Livingstone — PI2098 — position and weather

sailwx.info

Track history (hours):
 
Tides and Currents Weather Stations Pressure Air Temp Water Temp Dewpoint Dewpoint Depression Visibility Wind Speed Wind Dir Waves Ship Positions

Livingstone

Last reported at 2017-Dec-23 01:40 UTC. Time now 2018-Feb-24 23:38 UTC.
Position N 25°31' W 080°05'.
Warning: this ship's position is months out of date.

Length 14 m.

Type: Pleasure craft. MMSI: 244153050.

Date/timePositionNaut miles runAvg speedWind from/ knotsBaromVisibWave heightAir tempDewpointWater temp
2017-Dec-23 01:40N 25°31' W 080°05'0 2.3
2017-Dec-23 01:28N 25°32' W 080°05'1 2.7
2017-Dec-23 01:00N 25°33' W 080°05'2 4.3
2017-Dec-23 00:26N 25°35' W 080°05'2 5.4
2017-Dec-23 00:00N 25°38' W 080°05'3 5.4
2017-Dec-22 23:29N 25°40' W 080°05'2 5.1
2017-Dec-22 23:00N 25°43' W 080°05'3 5.0
2017-Dec-22 22:30N 25°45' W 080°05'2 4.8
2017-Dec-22 22:00N 25°48' W 080°05'2 3.5
2017-Dec-22 21:30N 25°49' W 080°05'2 4.8
2017-Dec-22 20:59N 25°52' W 080°05'2 4.9
2017-Dec-22 20:30N 25°54' W 080°05'2 4.6
2017-Dec-22 20:00N 25°57' W 080°05'3 5.2
2017-Dec-22 19:30N 25°59' W 080°05'2 4.0
2017-Dec-22 19:01N 26°01' W 080°05'2 4.1
2017-Dec-22 18:30N 26°03' W 080°05'2 3.9
2017-Dec-22 18:00N 26°05' W 080°05'2 3.7
2017-Dec-22 17:30N 26°06' W 080°07'  
Track history (hours):
 
Tides and Currents Weather Stations Pressure Air Temp Water Temp Dewpoint Dewpoint Depression Visibility Wind Speed Wind Dir Waves Ship Positions

Livingstone

Last reported at 2017-Dec-23 01:40 UTC. Time now 2018-Feb-24 23:38 UTC.
Position N 25°31' W 080°05'.
Warning: this ship's position is months out of date.

Length 14 m.

Type: Pleasure craft. MMSI: 244153050.

Date/timePositionNaut miles runAvg speedWind from/ knotsBaromVisibWave heightAir tempDewpointWater temp
2017-Dec-23 01:40N 25°31' W 080°05'0 2.3
2017-Dec-23 01:28N 25°32' W 080°05'1 2.7
2017-Dec-23 01:00N 25°33' W 080°05'2 4.3
2017-Dec-23 00:26N 25°35' W 080°05'2 5.4
2017-Dec-23 00:00N 25°38' W 080°05'3 5.4
2017-Dec-22 23:29N 25°40' W 080°05'2 5.1
2017-Dec-22 23:00N 25°43' W 080°05'3 5.0
2017-Dec-22 22:30N 25°45' W 080°05'2 4.8
2017-Dec-22 22:00N 25°48' W 080°05'2 3.5
2017-Dec-22 21:30N 25°49' W 080°05'2 4.8
2017-Dec-22 20:59N 25°52' W 080°05'2 4.9
2017-Dec-22 20:30N 25°54' W 080°05'2 4.6
2017-Dec-22 20:00N 25°57' W 080°05'3 5.2
2017-Dec-22 19:30N 25°59' W 080°05'2 4.0
2017-Dec-22 19:01N 26°01' W 080°05'2 4.1
2017-Dec-22 18:30N 26°03' W 080°05'2 3.9
2017-Dec-22 18:00N 26°05' W 080°05'2 3.7
2017-Dec-22 17:30N 26°06' W 080°07'  

Dump ship's entire track history